sensor_id;sensor_type;location;lat;lon;timestamp;temperature;humidity
16102;DHT22;56411;52.964;10.540;2023-05-29T00:02:08;12.50;99.90
16102;DHT22;56411;52.964;10.540;2023-05-29T00:04:35;12.50;99.90
16102;DHT22;56411;52.964;10.540;2023-05-29T00:07:03;12.50;99.90
16102;DHT22;56411;52.964;10.540;2023-05-29T00:09:31;12.50;99.90
16102;DHT22;56411;52.964;10.540;2023-05-29T00:11:58;12.50;99.90
16102;DHT22;56411;52.964;10.540;2023-05-29T00:14:26;12.50;99.90
16102;DHT22;56411;52.964;10.540;2023-05-29T00:16:53;12.50;99.90
16102;DHT22;56411;52.964;10.540;2023-05-29T00:19:20;12.50;99.90
16102;DHT22;56411;52.964;10.540;2023-05-29T00:21:47;12.50;99.90
16102;DHT22;56411;52.964;10.540;2023-05-29T00:24:14;12.50;99.90
16102;DHT22;56411;52.964;10.540;2023-05-29T00:26:43;12.40;99.90
16102;DHT22;56411;52.964;10.540;2023-05-29T00:29:11;12.40;99.90
16102;DHT22;56411;52.964;10.540;2023-05-29T00:31:39;12.40;99.90
16102;DHT22;56411;52.964;10.540;2023-05-29T00:34:06;12.40;99.90
16102;DHT22;56411;52.964;10.540;2023-05-29T00:36:34;12.40;99.90
16102;DHT22;56411;52.964;10.540;2023-05-29T00:39:01;12.30;99.90
16102;DHT22;56411;52.964;10.540;2023-05-29T00:41:28;12.20;99.90
16102;DHT22;56411;52.964;10.540;2023-05-29T00:43:56;12.20;99.90
16102;DHT22;56411;52.964;10.540;2023-05-29T00:46:23;12.10;99.90
16102;DHT22;56411;52.964;10.540;2023-05-29T00:48:50;12.10;99.90
16102;DHT22;56411;52.964;10.540;2023-05-29T00:51:18;12.00;99.90
16102;DHT22;56411;52.964;10.540;2023-05-29T00:53:46;12.00;99.90
16102;DHT22;56411;52.964;10.540;2023-05-29T00:56:14;11.90;99.90
16102;DHT22;56411;52.964;10.540;2023-05-29T00:58:42;11.80;99.90
16102;DHT22;56411;52.964;10.540;2023-05-29T01:01:11;11.80;99.90
16102;DHT22;56411;52.964;10.540;2023-05-29T01:03:38;11.80;99.90
16102;DHT22;56411;52.964;10.540;2023-05-29T01:06:05;11.80;99.90
16102;DHT22;56411;52.964;10.540;2023-05-29T01:08:33;11.70;99.90
16102;DHT22;56411;52.964;10.540;2023-05-29T01:11:08;11.70;99.90
16102;DHT22;56411;52.964;10.540;2023-05-29T01:13:41;11.70;99.90
16102;DHT22;56411;52.964;10.540;2023-05-29T01:16:16;11.60;99.90
16102;DHT22;56411;52.964;10.540;2023-05-29T01:18:54;11.60;99.90
16102;DHT22;56411;52.964;10.540;2023-05-29T01:21:27;11.60;99.90
16102;DHT22;56411;52.964;10.540;2023-05-29T01:24:07;11.60;99.90
16102;DHT22;56411;52.964;10.540;2023-05-29T01:26:50;11.60;99.90
16102;DHT22;56411;52.964;10.540;2023-05-29T01:29:20;11.50;99.90
16102;DHT22;56411;52.964;10.540;2023-05-29T01:31:50;11.50;99.90
16102;DHT22;56411;52.964;10.540;2023-05-29T01:34:18;11.50;99.90
16102;DHT22;56411;52.964;10.540;2023-05-29T01:36:45;11.50;99.90
16102;DHT22;56411;52.964;10.540;2023-05-29T01:39:13;11.50;99.90
16102;DHT22;56411;52.964;10.540;2023-05-29T01:41:42;11.50;99.90
16102;DHT22;56411;52.964;10.540;2023-05-29T01:44:13;11.50;99.90
16102;DHT22;56411;52.964;10.540;2023-05-29T01:46:41;11.50;99.90
16102;DHT22;56411;52.964;10.540;2023-05-29T01:49:09;11.40;99.90
16102;DHT22;56411;52.964;10.540;2023-05-29T01:51:36;11.40;99.90
16102;DHT22;56411;52.964;10.540;2023-05-29T01:54:04;11.40;99.90
16102;DHT22;56411;52.964;10.540;2023-05-29T01:56:31;11.30;99.90
16102;DHT22;56411;52.964;10.540;2023-05-29T01:58:58;11.30;99.90
16102;DHT22;56411;52.964;10.540;2023-05-29T02:01:27;11.20;99.90
16102;DHT22;56411;52.964;10.540;2023-05-29T02:03:54;11.20;99.90
16102;DHT22;56411;52.964;10.540;2023-05-29T02:06:21;11.10;99.90
16102;DHT22;56411;52.964;10.540;2023-05-29T02:08:48;11.10;99.90
16102;DHT22;56411;52.964;10.540;2023-05-29T02:11:15;11.10;99.90
16102;DHT22;56411;52.964;10.540;2023-05-29T02:13:42;11.00;99.90
16102;DHT22;56411;52.964;10.540;2023-05-29T02:16:09;11.00;99.90
16102;DHT22;56411;52.964;10.540;2023-05-29T02:18:39;10.90;99.90
16102;DHT22;56411;52.964;10.540;2023-05-29T02:21:06;10.90;99.90
16102;DHT22;56411;52.964;10.540;2023-05-29T02:23:34;10.80;99.90
16102;DHT22;56411;52.964;10.540;2023-05-29T02:26:01;10.80;99.90
16102;DHT22;56411;52.964;10.540;2023-05-29T02:28:28;10.70;99.90
16102;DHT22;56411;52.964;10.540;2023-05-29T02:30:55;10.70;99.90
16102;DHT22;56411;52.964;10.540;2023-05-29T02:33:22;10.60;99.90
16102;DHT22;56411;52.964;10.540;2023-05-29T02:35:50;10.60;99.90
16102;DHT22;56411;52.964;10.540;2023-05-29T02:38:17;10.50;99.90
16102;DHT22;56411;52.964;10.540;2023-05-29T02:40:44;10.40;99.90
16102;DHT22;56411;52.964;10.540;2023-05-29T02:43:13;10.40;99.90
16102;DHT22;56411;52.964;10.540;2023-05-29T02:45:40;10.40;99.90
16102;DHT22;56411;52.964;10.540;2023-05-29T02:48:07;10.30;99.90
16102;DHT22;56411;52.964;10.540;2023-05-29T02:50:34;10.30;99.90
16102;DHT22;56411;52.964;10.540;2023-05-29T02:53:02;10.30;99.90
16102;DHT22;56411;52.964;10.540;2023-05-29T02:55:30;10.20;99.90
16102;DHT22;56411;52.964;10.540;2023-05-29T02:58:01;10.20;99.90
16102;DHT22;56411;52.964;10.540;2023-05-29T03:00:29;10.20;99.90
16102;DHT22;56411;52.964;10.540;2023-05-29T03:02:56;10.20;99.90
16102;DHT22;56411;52.964;10.540;2023-05-29T03:05:23;10.20;99.90
16102;DHT22;56411;52.964;10.540;2023-05-29T03:07:50;10.20;99.90
16102;DHT22;56411;52.964;10.540;2023-05-29T03:10:18;10.10;99.90
16102;DHT22;56411;52.964;10.540;2023-05-29T03:12:46;10.10;99.90
16102;DHT22;56411;52.964;10.540;2023-05-29T03:15:13;10.10;99.90
16102;DHT22;56411;52.964;10.540;2023-05-29T03:17:41;10.00;99.90
16102;DHT22;56411;52.964;10.540;2023-05-29T03:20:08;10.00;99.90
16102;DHT22;56411;52.964;10.540;2023-05-29T03:22:36;10.00;99.90
16102;DHT22;56411;52.964;10.540;2023-05-29T03:25:04;9.90;99.90
16102;DHT22;56411;52.964;10.540;2023-05-29T03:27:33;9.90;99.90
16102;DHT22;56411;52.964;10.540;2023-05-29T03:30:00;9.80;99.90
16102;DHT22;56411;52.964;10.540;2023-05-29T03:32:27;9.80;99.90
16102;DHT22;56411;52.964;10.540;2023-05-29T03:34:54;9.80;99.90
16102;DHT22;56411;52.964;10.540;2023-05-29T03:37:23;9.80;99.90
16102;DHT22;56411;52.964;10.540;2023-05-29T03:39:50;9.70;99.90
16102;DHT22;56411;52.964;10.540;2023-05-29T03:42:17;9.70;99.90
16102;DHT22;56411;52.964;10.540;2023-05-29T03:44:45;9.70;99.90
16102;DHT22;56411;52.964;10.540;2023-05-29T03:47:12;9.70;99.90
16102;DHT22;56411;52.964;10.540;2023-05-29T03:49:39;9.70;99.90
16102;DHT22;56411;52.964;10.540;2023-05-29T03:52:06;9.60;99.90
16102;DHT22;56411;52.964;10.540;2023-05-29T03:54:33;9.60;99.90
16102;DHT22;56411;52.964;10.540;2023-05-29T03:57:00;9.70;99.90
16102;DHT22;56411;52.964;10.540;2023-05-29T03:59:27;9.70;99.90
16102;DHT22;56411;52.964;10.540;2023-05-29T04:01:55;9.70;99.90
16102;DHT22;56411;52.964;10.540;2023-05-29T04:04:22;9.80;99.90
16102;DHT22;56411;52.964;10.540;2023-05-29T04:06:50;9.80;99.90
16102;DHT22;56411;52.964;10.540;2023-05-29T04:09:17;9.80;99.90
16102;DHT22;56411;52.964;10.540;2023-05-29T04:11:44;9.80;99.90
16102;DHT22;56411;52.964;10.540;2023-05-29T04:14:11;9.80;99.90
16102;DHT22;56411;52.964;10.540;2023-05-29T04:16:38;9.80;99.90
16102;DHT22;56411;52.964;10.540;2023-05-29T04:19:07;9.80;99.90
16102;DHT22;56411;52.964;10.540;2023-05-29T04:21:34;9.80;99.90
16102;DHT22;56411;52.964;10.540;2023-05-29T04:24:01;9.80;99.90
16102;DHT22;56411;52.964;10.540;2023-05-29T04:26:28;9.70;99.90
16102;DHT22;56411;52.964;10.540;2023-05-29T04:28:58;9.70;99.90
16102;DHT22;56411;52.964;10.540;2023-05-29T04:31:25;9.80;99.90
16102;DHT22;56411;52.964;10.540;2023-05-29T04:33:52;9.80;99.90
16102;DHT22;56411;52.964;10.540;2023-05-29T04:36:23;9.80;99.90
16102;DHT22;56411;52.964;10.540;2023-05-29T04:38:52;9.80;99.90
16102;DHT22;56411;52.964;10.540;2023-05-29T04:41:19;9.80;99.90
16102;DHT22;56411;52.964;10.540;2023-05-29T04:43:49;9.80;99.90
16102;DHT22;56411;52.964;10.540;2023-05-29T04:46:17;9.80;99.90
16102;DHT22;56411;52.964;10.540;2023-05-29T04:48:44;9.80;99.90
16102;DHT22;56411;52.964;10.540;2023-05-29T04:51:12;9.80;99.90
16102;DHT22;56411;52.964;10.540;2023-05-29T04:53:40;9.80;99.90
16102;DHT22;56411;52.964;10.540;2023-05-29T04:56:08;9.80;99.90
16102;DHT22;56411;52.964;10.540;2023-05-29T04:58:35;9.80;99.90
16102;DHT22;56411;52.964;10.540;2023-05-29T05:01:02;9.80;99.90
16102;DHT22;56411;52.964;10.540;2023-05-29T05:03:29;9.80;99.90
16102;DHT22;56411;52.964;10.540;2023-05-29T05:05:59;9.90;99.90
16102;DHT22;56411;52.964;10.540;2023-05-29T05:08:28;9.90;99.90
16102;DHT22;56411;52.964;10.540;2023-05-29T05:10:56;10.00;99.90
16102;DHT22;56411;52.964;10.540;2023-05-29T05:13:24;10.00;99.90
16102;DHT22;56411;52.964;10.540;2023-05-29T05:15:51;10.10;99.90
16102;DHT22;56411;52.964;10.540;2023-05-29T05:18:18;10.10;99.90
16102;DHT22;56411;52.964;10.540;2023-05-29T05:20:45;10.10;99.90
16102;DHT22;56411;52.964;10.540;2023-05-29T05:23:13;10.10;99.90
16102;DHT22;56411;52.964;10.540;2023-05-29T05:25:40;10.20;99.90
16102;DHT22;56411;52.964;10.540;2023-05-29T05:28:08;10.30;99.90
16102;DHT22;56411;52.964;10.540;2023-05-29T05:30:35;10.30;99.90
16102;DHT22;56411;52.964;10.540;2023-05-29T05:33:02;10.30;99.90
16102;DHT22;56411;52.964;10.540;2023-05-29T05:35:29;10.30;99.90
16102;DHT22;56411;52.964;10.540;2023-05-29T05:37:56;10.40;99.90
16102;DHT22;56411;52.964;10.540;2023-05-29T05:40:25;10.40;99.90
16102;DHT22;56411;52.964;10.540;2023-05-29T05:42:54;10.40;99.90
16102;DHT22;56411;52.964;10.540;2023-05-29T05:45:22;10.50;99.90
16102;DHT22;56411;52.964;10.540;2023-05-29T05:47:49;10.50;99.90
16102;DHT22;56411;52.964;10.540;2023-05-29T05:50:16;10.50;99.90
16102;DHT22;56411;52.964;10.540;2023-05-29T05:52:43;10.50;99.90
16102;DHT22;56411;52.964;10.540;2023-05-29T05:55:10;10.40;99.90
16102;DHT22;56411;52.964;10.540;2023-05-29T05:57:37;10.40;99.90
16102;DHT22;56411;52.964;10.540;2023-05-29T06:00:05;10.50;99.90
16102;DHT22;56411;52.964;10.540;2023-05-29T06:02:38;10.60;99.90
16102;DHT22;56411;52.964;10.540;2023-05-29T06:05:07;10.70;99.90
16102;DHT22;56411;52.964;10.540;2023-05-29T06:07:34;10.80;99.90
16102;DHT22;56411;52.964;10.540;2023-05-29T06:10:02;10.80;99.90
16102;DHT22;56411;52.964;10.540;2023-05-29T06:12:29;10.80;99.90
16102;DHT22;56411;52.964;10.540;2023-05-29T06:14:56;10.90;99.90
16102;DHT22;56411;52.964;10.540;2023-05-29T06:17:24;11.00;99.90
16102;DHT22;56411;52.964;10.540;2023-05-29T06:19:55;11.10;99.90
16102;DHT22;56411;52.964;10.540;2023-05-29T06:22:22;11.20;99.90
16102;DHT22;56411;52.964;10.540;2023-05-29T06:24:49;11.00;99.90
16102;DHT22;56411;52.964;10.540;2023-05-29T06:27:17;11.00;99.90
16102;DHT22;56411;52.964;10.540;2023-05-29T06:29:47;11.10;99.90
16102;DHT22;56411;52.964;10.540;2023-05-29T06:32:15;11.10;99.90
16102;DHT22;56411;52.964;10.540;2023-05-29T06:34:42;11.20;99.90
16102;DHT22;56411;52.964;10.540;2023-05-29T06:37:11;11.30;99.90
16102;DHT22;56411;52.964;10.540;2023-05-29T06:39:38;11.30;99.90
16102;DHT22;56411;52.964;10.540;2023-05-29T06:42:07;11.30;99.90
16102;DHT22;56411;52.964;10.540;2023-05-29T06:44:34;11.40;99.90
16102;DHT22;56411;52.964;10.540;2023-05-29T06:47:01;11.50;99.90
16102;DHT22;56411;52.964;10.540;2023-05-29T06:49:28;11.60;99.90
16102;DHT22;56411;52.964;10.540;2023-05-29T06:51:55;11.70;99.90
16102;DHT22;56411;52.964;10.540;2023-05-29T06:54:24;11.80;99.90
16102;DHT22;56411;52.964;10.540;2023-05-29T06:56:50;11.90;99.90
16102;DHT22;56411;52.964;10.540;2023-05-29T06:59:19;12.00;99.90
16102;DHT22;56411;52.964;10.540;2023-05-29T07:01:46;12.10;99.90
16102;DHT22;56411;52.964;10.540;2023-05-29T07:04:13;12.10;99.90
16102;DHT22;56411;52.964;10.540;2023-05-29T07:06:40;12.20;99.90
16102;DHT22;56411;52.964;10.540;2023-05-29T07:09:07;12.30;99.90
16102;DHT22;56411;52.964;10.540;2023-05-29T07:11:36;12.40;99.90
16102;DHT22;56411;52.964;10.540;2023-05-29T07:14:03;12.40;99.90
16102;DHT22;56411;52.964;10.540;2023-05-29T07:16:30;12.60;99.90
16102;DHT22;56411;52.964;10.540;2023-05-29T07:18:57;12.70;99.90
16102;DHT22;56411;52.964;10.540;2023-05-29T07:21:24;12.70;99.90
16102;DHT22;56411;52.964;10.540;2023-05-29T07:23:51;12.80;99.90
16102;DHT22;56411;52.964;10.540;2023-05-29T07:26:21;12.80;99.90
16102;DHT22;56411;52.964;10.540;2023-05-29T07:28:50;12.70;99.90
16102;DHT22;56411;52.964;10.540;2023-05-29T07:31:17;12.60;99.90
16102;DHT22;56411;52.964;10.540;2023-05-29T07:33:44;12.70;99.90
16102;DHT22;56411;52.964;10.540;2023-05-29T07:36:11;12.80;99.90
16102;DHT22;56411;52.964;10.540;2023-05-29T07:38:38;13.00;99.90
16102;DHT22;56411;52.964;10.540;2023-05-29T07:41:05;13.10;99.90
16102;DHT22;56411;52.964;10.540;2023-05-29T07:43:32;13.30;99.90
16102;DHT22;56411;52.964;10.540;2023-05-29T07:46:01;13.50;99.90
16102;DHT22;56411;52.964;10.540;2023-05-29T07:48:28;13.50;99.90
16102;DHT22;56411;52.964;10.540;2023-05-29T07:50:57;13.50;99.90
16102;DHT22;56411;52.964;10.540;2023-05-29T07:53:24;13.60;99.90
16102;DHT22;56411;52.964;10.540;2023-05-29T07:55:51;13.60;99.90
16102;DHT22;56411;52.964;10.540;2023-05-29T07:58:18;13.80;99.90
16102;DHT22;56411;52.964;10.540;2023-05-29T08:00:46;13.70;99.90
16102;DHT22;56411;52.964;10.540;2023-05-29T08:03:15;13.80;99.90
16102;DHT22;56411;52.964;10.540;2023-05-29T08:05:43;13.80;99.90
16102;DHT22;56411;52.964;10.540;2023-05-29T08:08:10;13.90;99.90
16102;DHT22;56411;52.964;10.540;2023-05-29T08:10:38;13.90;99.90
16102;DHT22;56411;52.964;10.540;2023-05-29T08:13:05;14.00;99.90
16102;DHT22;56411;52.964;10.540;2023-05-29T08:15:32;14.00;99.90
16102;DHT22;56411;52.964;10.540;2023-05-29T08:18:00;14.00;99.90
16102;DHT22;56411;52.964;10.540;2023-05-29T08:20:28;14.00;99.90
16102;DHT22;56411;52.964;10.540;2023-05-29T08:22:55;14.10;99.90
16102;DHT22;56411;52.964;10.540;2023-05-29T08:25:22;14.10;99.90
16102;DHT22;56411;52.964;10.540;2023-05-29T08:27:49;14.00;99.90
16102;DHT22;56411;52.964;10.540;2023-05-29T08:30:16;14.10;99.90
16102;DHT22;56411;52.964;10.540;2023-05-29T08:32:43;14.30;99.90
16102;DHT22;56411;52.964;10.540;2023-05-29T08:35:10;14.50;99.90
16102;DHT22;56411;52.964;10.540;2023-05-29T08:37:38;14.60;99.90
16102;DHT22;56411;52.964;10.540;2023-05-29T08:40:06;14.60;99.90
16102;DHT22;56411;52.964;10.540;2023-05-29T08:42:39;14.60;99.90
16102;DHT22;56411;52.964;10.540;2023-05-29T08:45:08;14.60;99.90
16102;DHT22;56411;52.964;10.540;2023-05-29T08:47:40;14.80;99.90
16102;DHT22;56411;52.964;10.540;2023-05-29T08:50:07;15.00;99.90
16102;DHT22;56411;52.964;10.540;2023-05-29T08:52:35;15.10;99.90
16102;DHT22;56411;52.964;10.540;2023-05-29T08:55:04;14.80;99.90
16102;DHT22;56411;52.964;10.540;2023-05-29T08:57:32;14.90;99.90
16102;DHT22;56411;52.964;10.540;2023-05-29T09:00:02;15.10;99.90
16102;DHT22;56411;52.964;10.540;2023-05-29T09:02:34;15.10;99.90
16102;DHT22;56411;52.964;10.540;2023-05-29T09:05:02;15.00;99.90
16102;DHT22;56411;52.964;10.540;2023-05-29T09:07:29;14.90;99.90
16102;DHT22;56411;52.964;10.540;2023-05-29T09:09:57;15.00;99.90
16102;DHT22;56411;52.964;10.540;2023-05-29T09:12:26;15.10;99.90
16102;DHT22;56411;52.964;10.540;2023-05-29T09:14:53;15.10;99.90
16102;DHT22;56411;52.964;10.540;2023-05-29T09:17:20;15.20;99.90
16102;DHT22;56411;52.964;10.540;2023-05-29T09:19:48;15.30;99.90
16102;DHT22;56411;52.964;10.540;2023-05-29T09:22:15;15.40;99.90
16102;DHT22;56411;52.964;10.540;2023-05-29T09:24:45;15.40;99.90
16102;DHT22;56411;52.964;10.540;2023-05-29T09:27:13;15.40;99.90
16102;DHT22;56411;52.964;10.540;2023-05-29T09:29:43;15.40;99.90
16102;DHT22;56411;52.964;10.540;2023-05-29T09:32:12;15.50;99.90
16102;DHT22;56411;52.964;10.540;2023-05-29T09:34:39;15.50;99.90
16102;DHT22;56411;52.964;10.540;2023-05-29T09:37:07;15.70;99.90
16102;DHT22;56411;52.964;10.540;2023-05-29T09:39:45;15.90;99.90
16102;DHT22;56411;52.964;10.540;2023-05-29T09:42:13;15.80;99.90
16102;DHT22;56411;52.964;10.540;2023-05-29T09:44:42;15.60;99.90
16102;DHT22;56411;52.964;10.540;2023-05-29T09:47:09;15.70;99.90
16102;DHT22;56411;52.964;10.540;2023-05-29T09:49:41;15.90;99.90
16102;DHT22;56411;52.964;10.540;2023-05-29T09:52:10;15.80;99.90
16102;DHT22;56411;52.964;10.540;2023-05-29T09:54:41;15.80;99.90
16102;DHT22;56411;52.964;10.540;2023-05-29T09:57:12;15.90;99.90
16102;DHT22;56411;52.964;10.540;2023-05-29T09:59:41;15.90;99.90
16102;DHT22;56411;52.964;10.540;2023-05-29T10:02:10;15.90;99.90
16102;DHT22;56411;52.964;10.540;2023-05-29T10:04:38;15.90;99.90
16102;DHT22;56411;52.964;10.540;2023-05-29T10:07:08;16.10;99.90
16102;DHT22;56411;52.964;10.540;2023-05-29T10:09:41;16.00;99.90
16102;DHT22;56411;52.964;10.540;2023-05-29T10:12:11;16.10;99.90
16102;DHT22;56411;52.964;10.540;2023-05-29T10:14:39;16.10;99.90
16102;DHT22;56411;52.964;10.540;2023-05-29T10:17:09;16.30;99.90
16102;DHT22;56411;52.964;10.540;2023-05-29T10:19:39;16.50;99.90
16102;DHT22;56411;52.964;10.540;2023-05-29T10:22:06;16.40;99.90
16102;DHT22;56411;52.964;10.540;2023-05-29T10:24:33;16.20;99.90
16102;DHT22;56411;52.964;10.540;2023-05-29T10:27:02;16.30;99.90
16102;DHT22;56411;52.964;10.540;2023-05-29T10:29:36;16.40;99.90
16102;DHT22;56411;52.964;10.540;2023-05-29T10:32:21;16.40;99.90
16102;DHT22;56411;52.964;10.540;2023-05-29T10:34:57;16.60;99.90
16102;DHT22;56411;52.964;10.540;2023-05-29T10:37:36;16.60;99.90
16102;DHT22;56411;52.964;10.540;2023-05-29T10:40:04;16.80;99.90
16102;DHT22;56411;52.964;10.540;2023-05-29T10:42:44;16.90;99.90
16102;DHT22;56411;52.964;10.540;2023-05-29T10:45:49;17.00;99.90
16102;DHT22;56411;52.964;10.540;2023-05-29T10:48:37;16.80;99.90
16102;DHT22;56411;52.964;10.540;2023-05-29T10:51:06;16.80;99.90
16102;DHT22;56411;52.964;10.540;2023-05-29T10:53:34;16.80;99.90
16102;DHT22;56411;52.964;10.540;2023-05-29T10:56:08;17.00;99.90
16102;DHT22;56411;52.964;10.540;2023-05-29T10:58:36;16.80;99.90
16102;DHT22;56411;52.964;10.540;2023-05-29T11:01:04;17.10;99.90
16102;DHT22;56411;52.964;10.540;2023-05-29T11:03:32;17.30;99.90
16102;DHT22;56411;52.964;10.540;2023-05-29T11:06:02;17.50;99.90
16102;DHT22;56411;52.964;10.540;2023-05-29T11:08:33;17.90;99.90
16102;DHT22;56411;52.964;10.540;2023-05-29T11:11:03;18.00;99.90
16102;DHT22;56411;52.964;10.540;2023-05-29T11:13:33;18.20;99.90
16102;DHT22;56411;52.964;10.540;2023-05-29T11:16:35;18.50;99.90
16102;DHT22;56411;52.964;10.540;2023-05-29T11:19:05;18.90;99.90
16102;DHT22;56411;52.964;10.540;2023-05-29T11:21:44;19.30;99.90
16102;DHT22;56411;52.964;10.540;2023-05-29T11:24:20;19.40;99.90
16102;DHT22;56411;52.964;10.540;2023-05-29T11:26:48;19.90;99.90
16102;DHT22;56411;52.964;10.540;2023-05-29T11:29:21;19.20;98.10
16102;DHT22;56411;52.964;10.540;2023-05-29T11:31:49;19.20;99.00
16102;DHT22;56411;52.964;10.540;2023-05-29T11:34:21;19.20;98.20
16102;DHT22;56411;52.964;10.540;2023-05-29T11:36:51;19.80;97.10
16102;DHT22;56411;52.964;10.540;2023-05-29T11:39:19;19.80;95.60
16102;DHT22;56411;52.964;10.540;2023-05-29T11:41:50;19.70;95.70
16102;DHT22;56411;52.964;10.540;2023-05-29T11:44:17;19.80;96.80
16102;DHT22;56411;52.964;10.540;2023-05-29T11:46:45;19.90;92.80
16102;DHT22;56411;52.964;10.540;2023-05-29T11:49:12;19.60;92.30
16102;DHT22;56411;52.964;10.540;2023-05-29T11:51:42;19.50;93.70
16102;DHT22;56411;52.964;10.540;2023-05-29T11:54:13;20.30;94.60
16102;DHT22;56411;52.964;10.540;2023-05-29T11:56:40;20.30;92.80
16102;DHT22;56411;52.964;10.540;2023-05-29T11:59:11;21.10;92.30
16102;DHT22;56411;52.964;10.540;2023-05-29T12:01:38;21.20;93.60
16102;DHT22;56411;52.964;10.540;2023-05-29T12:04:14;21.30;94.10
16102;DHT22;56411;52.964;10.540;2023-05-29T12:06:41;20.90;92.20
16102;DHT22;56411;52.964;10.540;2023-05-29T12:09:25;20.70;91.30
16102;DHT22;56411;52.964;10.540;2023-05-29T12:11:53;20.90;91.50
16102;DHT22;56411;52.964;10.540;2023-05-29T12:14:20;21.50;91.30
16102;DHT22;56411;52.964;10.540;2023-05-29T12:16:47;21.70;85.80
16102;DHT22;56411;52.964;10.540;2023-05-29T12:19:14;21.40;88.90
16102;DHT22;56411;52.964;10.540;2023-05-29T12:21:41;21.90;90.10
16102;DHT22;56411;52.964;10.540;2023-05-29T12:24:09;22.90;90.40
16102;DHT22;56411;52.964;10.540;2023-05-29T12:26:38;23.40;81.70
16102;DHT22;56411;52.964;10.540;2023-05-29T12:29:05;22.10;79.60
16102;DHT22;56411;52.964;10.540;2023-05-29T12:31:32;21.50;82.30
16102;DHT22;56411;52.964;10.540;2023-05-29T12:34:01;21.50;83.80
16102;DHT22;56411;52.964;10.540;2023-05-29T12:36:28;22.00;84.70
16102;DHT22;56411;52.964;10.540;2023-05-29T12:38:56;22.30;85.10
16102;DHT22;56411;52.964;10.540;2023-05-29T12:41:27;22.20;84.30
16102;DHT22;56411;52.964;10.540;2023-05-29T12:43:56;21.80;76.70
16102;DHT22;56411;52.964;10.540;2023-05-29T12:46:24;21.40;78.90
16102;DHT22;56411;52.964;10.540;2023-05-29T12:48:53;21.00;73.00
16102;DHT22;56411;52.964;10.540;2023-05-29T12:51:23;21.60;80.80
16102;DHT22;56411;52.964;10.540;2023-05-29T12:53:51;22.40;79.20
16102;DHT22;56411;52.964;10.540;2023-05-29T12:56:21;23.20;79.70
16102;DHT22;56411;52.964;10.540;2023-05-29T12:58:50;23.10;78.00
16102;DHT22;56411;52.964;10.540;2023-05-29T13:01:19;23.20;78.90
16102;DHT22;56411;52.964;10.540;2023-05-29T13:03:47;23.80;80.90
16102;DHT22;56411;52.964;10.540;2023-05-29T13:06:15;23.70;81.80
16102;DHT22;56411;52.964;10.540;2023-05-29T13:08:42;24.10;82.80
16102;DHT22;56411;52.964;10.540;2023-05-29T13:11:09;23.50;75.80
16102;DHT22;56411;52.964;10.540;2023-05-29T13:13:36;23.60;77.90
16102;DHT22;56411;52.964;10.540;2023-05-29T13:16:03;23.30;79.40
16102;DHT22;56411;52.964;10.540;2023-05-29T13:18:32;23.90;77.10
16102;DHT22;56411;52.964;10.540;2023-05-29T13:21:00;24.50;79.40
16102;DHT22;56411;52.964;10.540;2023-05-29T13:23:27;24.80;79.40
16102;DHT22;56411;52.964;10.540;2023-05-29T13:25:54;23.50;78.00
16102;DHT22;56411;52.964;10.540;2023-05-29T13:28:21;24.50;80.60
16102;DHT22;56411;52.964;10.540;2023-05-29T13:30:49;24.10;77.00
16102;DHT22;56411;52.964;10.540;2023-05-29T13:33:17;24.00;77.30
16102;DHT22;56411;52.964;10.540;2023-05-29T13:35:45;24.10;79.70
16102;DHT22;56411;52.964;10.540;2023-05-29T13:38:13;25.00;81.30
16102;DHT22;56411;52.964;10.540;2023-05-29T13:40:40;25.20;76.50
16102;DHT22;56411;52.964;10.540;2023-05-29T13:43:07;24.00;79.20
16102;DHT22;56411;52.964;10.540;2023-05-29T13:45:34;23.50;79.00
16102;DHT22;56411;52.964;10.540;2023-05-29T13:48:02;23.70;82.00
16102;DHT22;56411;52.964;10.540;2023-05-29T13:50:29;23.90;76.60
16102;DHT22;56411;52.964;10.540;2023-05-29T13:52:58;24.50;78.00
16102;DHT22;56411;52.964;10.540;2023-05-29T13:55:25;24.60;78.50
16102;DHT22;56411;52.964;10.540;2023-05-29T13:57:54;24.10;75.90
16102;DHT22;56411;52.964;10.540;2023-05-29T14:00:23;24.20;77.80
16102;DHT22;56411;52.964;10.540;2023-05-29T14:02:50;25.00;75.90
16102;DHT22;56411;52.964;10.540;2023-05-29T14:05:17;24.70;74.30
16102;DHT22;56411;52.964;10.540;2023-05-29T14:07:44;23.80;74.50
16102;DHT22;56411;52.964;10.540;2023-05-29T14:10:13;23.40;75.20
16102;DHT22;56411;52.964;10.540;2023-05-29T14:12:40;23.10;76.40
16102;DHT22;56411;52.964;10.540;2023-05-29T14:15:08;24.30;79.30
16102;DHT22;56411;52.964;10.540;2023-05-29T14:17:35;25.40;76.00
16102;DHT22;56411;52.964;10.540;2023-05-29T14:20:06;25.40;75.90
16102;DHT22;56411;52.964;10.540;2023-05-29T14:22:34;26.20;76.00
16102;DHT22;56411;52.964;10.540;2023-05-29T14:25:03;26.90;75.00
16102;DHT22;56411;52.964;10.540;2023-05-29T14:27:31;26.50;74.20
16102;DHT22;56411;52.964;10.540;2023-05-29T14:29:59;26.70;73.40
16102;DHT22;56411;52.964;10.540;2023-05-29T14:32:26;26.80;73.00
16102;DHT22;56411;52.964;10.540;2023-05-29T14:34:53;27.00;71.90
16102;DHT22;56411;52.964;10.540;2023-05-29T14:37:23;27.20;73.70
16102;DHT22;56411;52.964;10.540;2023-05-29T14:39:50;27.10;73.70
16102;DHT22;56411;52.964;10.540;2023-05-29T14:42:17;27.60;73.90
16102;DHT22;56411;52.964;10.540;2023-05-29T14:44:46;28.00;71.00
16102;DHT22;56411;52.964;10.540;2023-05-29T14:47:13;28.00;69.40
16102;DHT22;56411;52.964;10.540;2023-05-29T14:49:40;27.00;72.00
16102;DHT22;56411;52.964;10.540;2023-05-29T14:52:07;27.50;71.60
16102;DHT22;56411;52.964;10.540;2023-05-29T14:54:34;27.40;71.00
16102;DHT22;56411;52.964;10.540;2023-05-29T14:57:01;28.10;72.00
16102;DHT22;56411;52.964;10.540;2023-05-29T14:59:28;27.30;67.90
16102;DHT22;56411;52.964;10.540;2023-05-29T15:01:57;27.20;68.90
16102;DHT22;56411;52.964;10.540;2023-05-29T15:04:25;26.70;69.80
16102;DHT22;56411;52.964;10.540;2023-05-29T15:06:53;26.20;69.60
16102;DHT22;56411;52.964;10.540;2023-05-29T15:09:21;24.90;70.20
16102;DHT22;56411;52.964;10.540;2023-05-29T15:11:48;24.80;70.90
16102;DHT22;56411;52.964;10.540;2023-05-29T15:14:16;24.70;72.10
16102;DHT22;56411;52.964;10.540;2023-05-29T15:16:43;25.70;72.00
16102;DHT22;56411;52.964;10.540;2023-05-29T15:19:12;26.00;71.20
16102;DHT22;56411;52.964;10.540;2023-05-29T15:21:39;25.90;71.00
16102;DHT22;56411;52.964;10.540;2023-05-29T15:24:06;25.60;69.80
16102;DHT22;56411;52.964;10.540;2023-05-29T15:26:33;25.90;69.40